sensor_id;sensor_type;location;lat;lon;timestamp;P1;durP1;ratioP1;P2;durP2;ratioP2
21979;SDS011;11154;48.558;9.234;2023-03-01T00:01:37;18.65;;;16.52;;
21979;SDS011;11154;48.558;9.234;2023-03-01T00:03:40;18.40;;;16.23;;
21979;SDS011;11154;48.558;9.234;2023-03-01T00:05:43;19.85;;;17.10;;
21979;SDS011;11154;48.558;9.234;2023-03-01T00:07:46;18.67;;;16.08;;
21979;SDS011;11154;48.558;9.234;2023-03-01T00:09:47;17.75;;;15.90;;
21979;SDS011;11154;48.558;9.234;2023-03-01T00:11:49;19.13;;;16.50;;
21979;SDS011;11154;48.558;9.234;2023-03-01T00:13:51;19.08;;;16.70;;
21979;SDS011;11154;48.558;9.234;2023-03-01T00:15:54;19.08;;;15.63;;
21979;SDS011;11154;48.558;9.234;2023-03-01T00:17:56;18.35;;;16.30;;
21979;SDS011;11154;48.558;9.234;2023-03-01T00:19:59;17.75;;;15.85;;
21979;SDS011;11154;48.558;9.234;2023-03-01T00:22:01;20.25;;;17.30;;
21979;SDS011;11154;48.558;9.234;2023-03-01T00:24:04;19.42;;;16.35;;
21979;SDS011;11154;48.558;9.234;2023-03-01T00:26:06;19.02;;;16.10;;
21979;SDS011;11154;48.558;9.234;2023-03-01T00:28:09;18.75;;;15.95;;
21979;SDS011;11154;48.558;9.234;2023-03-01T00:30:11;17.40;;;15.35;;
21979;SDS011;11154;48.558;9.234;2023-03-01T00:32:13;18.88;;;15.93;;
21979;SDS011;11154;48.558;9.234;2023-03-01T00:34:15;18.30;;;15.80;;
21979;SDS011;11154;48.558;9.234;2023-03-01T00:36:18;18.20;;;16.08;;
21979;SDS011;11154;48.558;9.234;2023-03-01T00:38:19;19.55;;;16.33;;
21979;SDS011;11154;48.558;9.234;2023-03-01T00:40:21;17.90;;;15.52;;
21979;SDS011;11154;48.558;9.234;2023-03-01T00:42:23;17.60;;;15.63;;
21979;SDS011;11154;48.558;9.234;2023-03-01T00:44:24;18.40;;;16.05;;
21979;SDS011;11154;48.558;9.234;2023-03-01T00:46:26;19.17;;;15.85;;
21979;SDS011;11154;48.558;9.234;2023-03-01T00:48:30;18.80;;;16.75;;
21979;SDS011;11154;48.558;9.234;2023-03-01T00:50:31;18.48;;;15.85;;
21979;SDS011;11154;48.558;9.234;2023-03-01T00:52:34;19.02;;;16.42;;
21979;SDS011;11154;48.558;9.234;2023-03-01T00:54:36;17.95;;;16.05;;
21979;SDS011;11154;48.558;9.234;2023-03-01T00:56:38;18.00;;;15.50;;
21979;SDS011;11154;48.558;9.234;2023-03-01T00:58:39;17.95;;;15.88;;
21979;SDS011;11154;48.558;9.234;2023-03-01T01:00:41;17.33;;;15.07;;
21979;SDS011;11154;48.558;9.234;2023-03-01T01:02:43;17.02;;;15.23;;
21979;SDS011;11154;48.558;9.234;2023-03-01T01:04:45;17.50;;;14.93;;
21979;SDS011;11154;48.558;9.234;2023-03-01T01:06:47;18.38;;;16.10;;
21979;SDS011;11154;48.558;9.234;2023-03-01T01:08:50;19.05;;;16.33;;
21979;SDS011;11154;48.558;9.234;2023-03-01T01:10:53;18.30;;;15.52;;
21979;SDS011;11154;48.558;9.234;2023-03-01T01:12:55;18.77;;;16.40;;
21979;SDS011;11154;48.558;9.234;2023-03-01T01:14:58;18.75;;;15.93;;
21979;SDS011;11154;48.558;9.234;2023-03-01T01:17:00;18.52;;;15.98;;
21979;SDS011;11154;48.558;9.234;2023-03-01T01:19:02;18.10;;;15.88;;
21979;SDS011;11154;48.558;9.234;2023-03-01T01:21:05;18.77;;;16.67;;
21979;SDS011;11154;48.558;9.234;2023-03-01T01:23:07;17.88;;;15.93;;
21979;SDS011;11154;48.558;9.234;2023-03-01T01:25:10;17.52;;;15.65;;
21979;SDS011;11154;48.558;9.234;2023-03-01T01:27:12;20.27;;;16.38;;
21979;SDS011;11154;48.558;9.234;2023-03-01T01:29:14;18.02;;;15.95;;
21979;SDS011;11154;48.558;9.234;2023-03-01T01:31:16;17.63;;;15.82;;
21979;SDS011;11154;48.558;9.234;2023-03-01T01:33:19;17.85;;;15.25;;
21979;SDS011;11154;48.558;9.234;2023-03-01T01:35:20;18.85;;;15.55;;
21979;SDS011;11154;48.558;9.234;2023-03-01T01:37:22;19.58;;;15.77;;
21979;SDS011;11154;48.558;9.234;2023-03-01T01:39:31;18.30;;;16.35;;
21979;SDS011;11154;48.558;9.234;2023-03-01T01:41:34;18.27;;;15.82;;
21979;SDS011;11154;48.558;9.234;2023-03-01T01:43:36;19.58;;;16.55;;
21979;SDS011;11154;48.558;9.234;2023-03-01T01:45:41;20.63;;;17.30;;
21979;SDS011;11154;48.558;9.234;2023-03-01T01:47:42;20.40;;;16.05;;
21979;SDS011;11154;48.558;9.234;2023-03-01T01:49:49;19.08;;;15.20;;
21979;SDS011;11154;48.558;9.234;2023-03-01T01:51:56;18.13;;;16.15;;
21979;SDS011;11154;48.558;9.234;2023-03-01T01:54:05;17.63;;;15.35;;
21979;SDS011;11154;48.558;9.234;2023-03-01T01:56:10;19.23;;;16.42;;
21979;SDS011;11154;48.558;9.234;2023-03-01T01:58:15;18.95;;;16.13;;
21979;SDS011;11154;48.558;9.234;2023-03-01T02:00:21;17.10;;;15.02;;
21979;SDS011;11154;48.558;9.234;2023-03-01T02:02:24;19.73;;;15.65;;
21979;SDS011;11154;48.558;9.234;2023-03-01T02:04:26;21.52;;;16.20;;
21979;SDS011;11154;48.558;9.234;2023-03-01T02:06:29;20.17;;;16.15;;
21979;SDS011;11154;48.558;9.234;2023-03-01T02:08:35;18.55;;;15.23;;
21979;SDS011;11154;48.558;9.234;2023-03-01T02:10:39;19.85;;;15.15;;
21979;SDS011;11154;48.558;9.234;2023-03-01T02:12:42;19.67;;;16.05;;
21979;SDS011;11154;48.558;9.234;2023-03-01T02:14:45;18.38;;;15.05;;
21979;SDS011;11154;48.558;9.234;2023-03-01T02:16:47;18.55;;;14.95;;
21979;SDS011;11154;48.558;9.234;2023-03-01T02:18:49;18.08;;;15.10;;
21979;SDS011;11154;48.558;9.234;2023-03-01T02:20:55;17.75;;;14.93;;
21979;SDS011;11154;48.558;9.234;2023-03-01T02:23:06;18.50;;;14.80;;
21979;SDS011;11154;48.558;9.234;2023-03-01T02:25:12;17.52;;;14.43;;
21979;SDS011;11154;48.558;9.234;2023-03-01T02:27:37;17.65;;;14.40;;
21979;SDS011;11154;48.558;9.234;2023-03-01T02:29:48;18.15;;;15.13;;
21979;SDS011;11154;48.558;9.234;2023-03-01T02:31:49;19.58;;;14.82;;
21979;SDS011;11154;48.558;9.234;2023-03-01T02:33:53;18.60;;;14.85;;
21979;SDS011;11154;48.558;9.234;2023-03-01T02:35:56;18.88;;;15.32;;
21979;SDS011;11154;48.558;9.234;2023-03-01T02:37:58;19.40;;;16.10;;
21979;SDS011;11154;48.558;9.234;2023-03-01T02:40:03;17.92;;;15.32;;
21979;SDS011;11154;48.558;9.234;2023-03-01T02:42:13;16.73;;;14.35;;
21979;SDS011;11154;48.558;9.234;2023-03-01T02:44:19;19.52;;;15.70;;
21979;SDS011;11154;48.558;9.234;2023-03-01T02:46:23;18.63;;;14.98;;
21979;SDS011;11154;48.558;9.234;2023-03-01T02:48:26;19.02;;;15.07;;
21979;SDS011;11154;48.558;9.234;2023-03-01T02:50:39;18.83;;;15.07;;
21979;SDS011;11154;48.558;9.234;2023-03-01T02:52:55;19.75;;;15.00;;
21979;SDS011;11154;48.558;9.234;2023-03-01T02:55:02;18.02;;;14.32;;
21979;SDS011;11154;48.558;9.234;2023-03-01T02:57:07;17.55;;;14.63;;
21979;SDS011;11154;48.558;9.234;2023-03-01T02:59:10;17.42;;;15.05;;
21979;SDS011;11154;48.558;9.234;2023-03-01T03:01:12;17.70;;;14.20;;
21979;SDS011;11154;48.558;9.234;2023-03-01T03:03:17;17.17;;;14.43;;
21979;SDS011;11154;48.558;9.234;2023-03-01T03:05:22;16.33;;;14.40;;
21979;SDS011;11154;48.558;9.234;2023-03-01T03:07:25;17.45;;;14.75;;
21979;SDS011;11154;48.558;9.234;2023-03-01T03:09:27;17.63;;;14.82;;
21979;SDS011;11154;48.558;9.234;2023-03-01T03:11:29;18.23;;;14.50;;
21979;SDS011;11154;48.558;9.234;2023-03-01T03:13:32;18.58;;;15.40;;
21979;SDS011;11154;48.558;9.234;2023-03-01T03:15:35;16.95;;;14.50;;
21979;SDS011;11154;48.558;9.234;2023-03-01T03:17:36;18.23;;;15.43;;
21979;SDS011;11154;48.558;9.234;2023-03-01T03:19:40;17.92;;;14.88;;
21979;SDS011;11154;48.558;9.234;2023-03-01T03:21:45;19.40;;;15.55;;
21979;SDS011;11154;48.558;9.234;2023-03-01T03:23:47;17.67;;;15.00;;
21979;SDS011;11154;48.558;9.234;2023-03-01T03:25:49;17.38;;;15.38;;
21979;SDS011;11154;48.558;9.234;2023-03-01T03:27:52;16.63;;;14.38;;
21979;SDS011;11154;48.558;9.234;2023-03-01T03:29:56;18.45;;;15.15;;
21979;SDS011;11154;48.558;9.234;2023-03-01T03:31:58;19.65;;;14.88;;
21979;SDS011;11154;48.558;9.234;2023-03-01T03:34:00;18.73;;;15.43;;
21979;SDS011;11154;48.558;9.234;2023-03-01T03:36:03;17.67;;;14.57;;
21979;SDS011;11154;48.558;9.234;2023-03-01T03:38:06;17.63;;;14.85;;
21979;SDS011;11154;48.558;9.234;2023-03-01T03:40:15;17.05;;;14.60;;
21979;SDS011;11154;48.558;9.234;2023-03-01T03:42:17;20.35;;;15.45;;
21979;SDS011;11154;48.558;9.234;2023-03-01T03:44:18;19.10;;;15.35;;
21979;SDS011;11154;48.558;9.234;2023-03-01T03:46:20;18.20;;;14.95;;
21979;SDS011;11154;48.558;9.234;2023-03-01T03:48:22;17.85;;;15.05;;
21979;SDS011;11154;48.558;9.234;2023-03-01T03:50:23;18.50;;;15.68;;
21979;SDS011;11154;48.558;9.234;2023-03-01T03:52:26;20.08;;;14.52;;
21979;SDS011;11154;48.558;9.234;2023-03-01T03:54:28;19.33;;;15.75;;
21979;SDS011;11154;48.558;9.234;2023-03-01T03:56:30;17.45;;;14.43;;
21979;SDS011;11154;48.558;9.234;2023-03-01T03:58:32;18.35;;;15.65;;
21979;SDS011;11154;48.558;9.234;2023-03-01T04:00:34;20.20;;;14.60;;
21979;SDS011;11154;48.558;9.234;2023-03-01T04:02:38;21.42;;;13.75;;
21979;SDS011;11154;48.558;9.234;2023-03-01T04:04:40;18.40;;;13.20;;
21979;SDS011;11154;48.558;9.234;2023-03-01T04:06:42;19.45;;;13.02;;
21979;SDS011;11154;48.558;9.234;2023-03-01T04:08:45;20.38;;;13.50;;
21979;SDS011;11154;48.558;9.234;2023-03-01T04:10:47;20.17;;;13.13;;
21979;SDS011;11154;48.558;9.234;2023-03-01T04:12:51;20.55;;;12.32;;
21979;SDS011;11154;48.558;9.234;2023-03-01T04:14:52;19.20;;;12.43;;
21979;SDS011;11154;48.558;9.234;2023-03-01T04:16:54;17.88;;;10.75;;
21979;SDS011;11154;48.558;9.234;2023-03-01T04:18:56;21.92;;;11.43;;
21979;SDS011;11154;48.558;9.234;2023-03-01T04:20:59;20.58;;;10.68;;
21979;SDS011;11154;48.558;9.234;2023-03-01T04:23:02;20.52;;;12.00;;
21979;SDS011;11154;48.558;9.234;2023-03-01T04:25:12;17.60;;;11.93;;
21979;SDS011;11154;48.558;9.234;2023-03-01T04:27:14;17.98;;;12.45;;
21979;SDS011;11154;48.558;9.234;2023-03-01T04:29:16;19.40;;;11.43;;
21979;SDS011;11154;48.558;9.234;2023-03-01T04:31:18;19.73;;;12.48;;
21979;SDS011;11154;48.558;9.234;2023-03-01T04:33:21;16.08;;;11.57;;
21979;SDS011;11154;48.558;9.234;2023-03-01T04:35:23;18.13;;;12.02;;
21979;SDS011;11154;48.558;9.234;2023-03-01T04:37:25;18.13;;;11.80;;
21979;SDS011;11154;48.558;9.234;2023-03-01T04:39:26;17.10;;;11.98;;
21979;SDS011;11154;48.558;9.234;2023-03-01T04:41:30;16.77;;;12.05;;
21979;SDS011;11154;48.558;9.234;2023-03-01T04:43:31;18.27;;;11.50;;
21979;SDS011;11154;48.558;9.234;2023-03-01T04:45:34;16.23;;;11.32;;
21979;SDS011;11154;48.558;9.234;2023-03-01T04:47:35;15.88;;;11.20;;
21979;SDS011;11154;48.558;9.234;2023-03-01T04:49:38;17.42;;;11.90;;
21979;SDS011;11154;48.558;9.234;2023-03-01T04:51:40;18.08;;;11.75;;
21979;SDS011;11154;48.558;9.234;2023-03-01T04:53:41;15.50;;;11.18;;
21979;SDS011;11154;48.558;9.234;2023-03-01T04:55:44;17.83;;;11.88;;
21979;SDS011;11154;48.558;9.234;2023-03-01T04:57:47;17.55;;;11.27;;
21979;SDS011;11154;48.558;9.234;2023-03-01T04:59:48;20.85;;;12.75;;
21979;SDS011;11154;48.558;9.234;2023-03-01T05:01:50;16.15;;;12.15;;
21979;SDS011;11154;48.558;9.234;2023-03-01T05:03:52;18.35;;;12.05;;
21979;SDS011;11154;48.558;9.234;2023-03-01T05:05:54;17.45;;;12.07;;
21979;SDS011;11154;48.558;9.234;2023-03-01T05:08:01;18.67;;;13.07;;
21979;SDS011;11154;48.558;9.234;2023-03-01T05:10:04;19.35;;;13.10;;
21979;SDS011;11154;48.558;9.234;2023-03-01T05:12:06;20.35;;;13.63;;
21979;SDS011;11154;48.558;9.234;2023-03-01T05:14:09;20.55;;;14.35;;
21979;SDS011;11154;48.558;9.234;2023-03-01T05:16:11;23.08;;;16.00;;
21979;SDS011;11154;48.558;9.234;2023-03-01T05:18:12;27.73;;;16.60;;
21979;SDS011;11154;48.558;9.234;2023-03-01T05:20:14;20.67;;;13.68;;
21979;SDS011;11154;48.558;9.234;2023-03-01T05:22:16;19.38;;;14.13;;
21979;SDS011;11154;48.558;9.234;2023-03-01T05:24:19;22.45;;;14.75;;
21979;SDS011;11154;48.558;9.234;2023-03-01T05:26:20;25.30;;;15.43;;
21979;SDS011;11154;48.558;9.234;2023-03-01T05:28:27;25.98;;;16.60;;
21979;SDS011;11154;48.558;9.234;2023-03-01T05:30:31;23.60;;;15.05;;
21979;SDS011;11154;48.558;9.234;2023-03-01T05:32:33;24.30;;;15.80;;
21979;SDS011;11154;48.558;9.234;2023-03-01T05:34:35;21.52;;;14.52;;
21979;SDS011;11154;48.558;9.234;2023-03-01T05:36:38;20.20;;;12.57;;
21979;SDS011;11154;48.558;9.234;2023-03-01T05:38:39;21.38;;;12.43;;
21979;SDS011;11154;48.558;9.234;2023-03-01T05:40:41;19.63;;;13.02;;
21979;SDS011;11154;48.558;9.234;2023-03-01T05:42:44;17.52;;;11.48;;
21979;SDS011;11154;48.558;9.234;2023-03-01T05:44:47;17.55;;;12.48;;
21979;SDS011;11154;48.558;9.234;2023-03-01T05:46:50;19.58;;;12.63;;
21979;SDS011;11154;48.558;9.234;2023-03-01T05:48:52;16.20;;;11.93;;
21979;SDS011;11154;48.558;9.234;2023-03-01T05:50:54;16.67;;;12.10;;
21979;SDS011;11154;48.558;9.234;2023-03-01T05:52:59;19.92;;;13.18;;
21979;SDS011;11154;48.558;9.234;2023-03-01T05:55:02;17.40;;;12.45;;
21979;SDS011;11154;48.558;9.234;2023-03-01T05:57:04;22.00;;;14.10;;
21979;SDS011;11154;48.558;9.234;2023-03-01T05:59:06;20.75;;;12.70;;
21979;SDS011;11154;48.558;9.234;2023-03-01T06:01:10;20.42;;;12.38;;
21979;SDS011;11154;48.558;9.234;2023-03-01T06:03:15;17.27;;;12.27;;
21979;SDS011;11154;48.558;9.234;2023-03-01T06:05:18;18.17;;;12.07;;
21979;SDS011;11154;48.558;9.234;2023-03-01T06:07:20;17.55;;;12.32;;
21979;SDS011;11154;48.558;9.234;2023-03-01T06:09:22;18.75;;;12.57;;
21979;SDS011;11154;48.558;9.234;2023-03-01T06:11:26;19.08;;;12.55;;
21979;SDS011;11154;48.558;9.234;2023-03-01T06:13:27;16.52;;;12.48;;
21979;SDS011;11154;48.558;9.234;2023-03-01T06:15:29;19.70;;;12.23;;
21979;SDS011;11154;48.558;9.234;2023-03-01T06:17:31;17.00;;;12.90;;
21979;SDS011;11154;48.558;9.234;2023-03-01T06:19:38;20.48;;;13.68;;
21979;SDS011;11154;48.558;9.234;2023-03-01T06:21:40;19.58;;;12.85;;
21979;SDS011;11154;48.558;9.234;2023-03-01T06:23:42;20.10;;;14.05;;
21979;SDS011;11154;48.558;9.234;2023-03-01T06:25:43;18.05;;;12.70;;
21979;SDS011;11154;48.558;9.234;2023-03-01T06:27:45;20.83;;;13.27;;
21979;SDS011;11154;48.558;9.234;2023-03-01T06:29:48;19.58;;;14.15;;
21979;SDS011;11154;48.558;9.234;2023-03-01T06:31:50;23.85;;;13.70;;
21979;SDS011;11154;48.558;9.234;2023-03-01T06:33:52;20.42;;;13.48;;
21979;SDS011;11154;48.558;9.234;2023-03-01T06:35:55;20.38;;;13.45;;
21979;SDS011;11154;48.558;9.234;2023-03-01T06:37:58;17.95;;;13.52;;
21979;SDS011;11154;48.558;9.234;2023-03-01T06:40:01;18.15;;;12.77;;
21979;SDS011;11154;48.558;9.234;2023-03-01T06:42:07;21.05;;;12.82;;
21979;SDS011;11154;48.558;9.234;2023-03-01T06:44:11;19.83;;;13.02;;
21979;SDS011;11154;48.558;9.234;2023-03-01T06:46:13;21.30;;;13.90;;
21979;SDS011;11154;48.558;9.234;2023-03-01T06:48:15;19.02;;;13.93;;
21979;SDS011;11154;48.558;9.234;2023-03-01T06:50:16;20.27;;;13.23;;
21979;SDS011;11154;48.558;9.234;2023-03-01T06:52:20;21.70;;;13.32;;
21979;SDS011;11154;48.558;9.234;2023-03-01T06:54:22;19.58;;;13.48;;
21979;SDS011;11154;48.558;9.234;2023-03-01T06:56:23;18.83;;;12.63;;
21979;SDS011;11154;48.558;9.234;2023-03-01T06:58:25;20.05;;;13.20;;
21979;SDS011;11154;48.558;9.234;2023-03-01T07:00:27;19.10;;;13.55;;
21979;SDS011;11154;48.558;9.234;2023-03-01T07:02:29;21.30;;;14.15;;
21979;SDS011;11154;48.558;9.234;2023-03-01T07:04:31;19.20;;;13.23;;
21979;SDS011;11154;48.558;9.234;2023-03-01T07:06:33;21.35;;;12.93;;
21979;SDS011;11154;48.558;9.234;2023-03-01T07:08:36;20.98;;;13.35;;
21979;SDS011;11154;48.558;9.234;2023-03-01T07:10:37;21.20;;;14.10;;
21979;SDS011;11154;48.558;9.234;2023-03-01T07:12:42;17.88;;;13.75;;
21979;SDS011;11154;48.558;9.234;2023-03-01T07:14:43;20.63;;;13.93;;
21979;SDS011;11154;48.558;9.234;2023-03-01T07:16:45;23.27;;;14.85;;
21979;SDS011;11154;48.558;9.234;2023-03-01T07:18:47;21.42;;;14.55;;
21979;SDS011;11154;48.558;9.234;2023-03-01T07:20:49;21.25;;;13.88;;
21979;SDS011;11154;48.558;9.234;2023-03-01T07:22:51;22.92;;;14.10;;
21979;SDS011;11154;48.558;9.234;2023-03-01T07:24:54;24.83;;;14.00;;
21979;SDS011;11154;48.558;9.234;2023-03-01T07:26:56;24.33;;;15.38;;
21979;SDS011;11154;48.558;9.234;2023-03-01T07:28:58;22.15;;;14.23;;
21979;SDS011;11154;48.558;9.234;2023-03-01T07:31:00;22.50;;;13.70;;
21979;SDS011;11154;48.558;9.234;2023-03-01T07:33:03;21.23;;;14.15;;
21979;SDS011;11154;48.558;9.234;2023-03-01T07:35:05;21.17;;;14.82;;
21979;SDS011;11154;48.558;9.234;2023-03-01T07:37:07;22.25;;;14.50;;
21979;SDS011;11154;48.558;9.234;2023-03-01T07:39:09;20.30;;;14.00;;
21979;SDS011;11154;48.558;9.234;2023-03-01T07:41:12;19.70;;;15.15;;
21979;SDS011;11154;48.558;9.234;2023-03-01T07:43:14;23.63;;;14.77;;
21979;SDS011;11154;48.558;9.234;2023-03-01T07:45:16;22.88;;;14.85;;
21979;SDS011;11154;48.558;9.234;2023-03-01T07:47:18;20.88;;;14.77;;
21979;SDS011;11154;48.558;9.234;2023-03-01T07:49:19;19.75;;;13.65;;
21979;SDS011;11154;48.558;9.234;2023-03-01T07:51:21;22.92;;;15.57;;
21979;SDS011;11154;48.558;9.234;2023-03-01T07:53:23;24.60;;;15.32;;
21979;SDS011;11154;48.558;9.234;2023-03-01T07:55:24;22.55;;;15.43;;
21979;SDS011;11154;48.558;9.234;2023-03-01T07:57:27;19.10;;;13.75;;
21979;SDS011;11154;48.558;9.234;2023-03-01T07:59:29;24.17;;;14.95;;
21979;SDS011;11154;48.558;9.234;2023-03-01T08:01:31;24.10;;;14.65;;
21979;SDS011;11154;48.558;9.234;2023-03-01T08:03:33;23.17;;;14.57;;
21979;SDS011;11154;48.558;9.234;2023-03-01T08:05:34;22.80;;;13.98;;
21979;SDS011;11154;48.558;9.234;2023-03-01T08:07:36;22.20;;;14.77;;
21979;SDS011;11154;48.558;9.234;2023-03-01T08:09:38;19.48;;;14.02;;
21979;SDS011;11154;48.558;9.234;2023-03-01T08:11:39;21.52;;;14.30;;
21979;SDS011;11154;48.558;9.234;2023-03-01T08:13:43;20.85;;;14.57;;
21979;SDS011;11154;48.558;9.234;2023-03-01T08:15:45;17.73;;;13.50;;
21979;SDS011;11154;48.558;9.234;2023-03-01T08:17:48;20.05;;;14.02;;
21979;SDS011;11154;48.558;9.234;2023-03-01T08:19:50;25.05;;;14.20;;
21979;SDS011;11154;48.558;9.234;2023-03-01T08:21:52;21.65;;;14.65;;
21979;SDS011;11154;48.558;9.234;2023-03-01T08:23:53;19.45;;;14.23;;
21979;SDS011;11154;48.558;9.234;2023-03-01T08:25:55;19.85;;;14.65;;
21979;SDS011;11154;48.558;9.234;2023-03-01T08:28:04;23.58;;;15.15;;
21979;SDS011;11154;48.558;9.234;2023-03-01T08:30:08;20.00;;;14.90;;
21979;SDS011;11154;48.558;9.234;2023-03-01T08:32:10;26.90;;;15.70;;
21979;SDS011;11154;48.558;9.234;2023-03-01T08:34:13;33.47;;;20.17;;
21979;SDS011;11154;48.558;9.234;2023-03-01T08:36:16;25.50;;;16.83;;
21979;SDS011;11154;48.558;9.234;2023-03-01T08:38:18;20.13;;;14.57;;
21979;SDS011;11154;48.558;9.234;2023-03-01T08:40:20;19.45;;;13.88;;
21979;SDS011;11154;48.558;9.234;2023-03-01T08:42:21;19.67;;;14.32;;
21979;SDS011;11154;48.558;9.234;2023-03-01T08:44:23;22.10;;;15.27;;
21979;SDS011;11154;48.558;9.234;2023-03-01T08:46:26;23.50;;;15.40;;
21979;SDS011;11154;48.558;9.234;2023-03-01T08:48:28;21.25;;;14.70;;
21979;SDS011;11154;48.558;9.234;2023-03-01T08:50:30;25.63;;;15.23;;
21979;SDS011;11154;48.558;9.234;2023-03-01T08:52:32;24.48;;;14.98;;
21979;SDS011;11154;48.558;9.234;2023-03-01T08:54:34;21.58;;;14.65;;
21979;SDS011;11154;48.558;9.234;2023-03-01T08:56:35;19.90;;;14.32;;
21979;SDS011;11154;48.558;9.234;2023-03-01T08:58:37;21.42;;;15.30;;
21979;SDS011;11154;48.558;9.234;2023-03-01T09:00:39;21.63;;;14.75;;
21979;SDS011;11154;48.558;9.234;2023-03-01T09:02:42;20.27;;;14.20;;
21979;SDS011;11154;48.558;9.234;2023-03-01T09:04:44;22.65;;;14.20;;
21979;SDS011;11154;48.558;9.234;2023-03-01T09:06:46;22.85;;;14.82;;
21979;SDS011;11154;48.558;9.234;2023-03-01T09:08:48;20.55;;;14.82;;
21979;SDS011;11154;48.558;9.234;2023-03-01T09:10:51;22.17;;;15.30;;
21979;SDS011;11154;48.558;9.234;2023-03-01T09:12:53;22.40;;;15.30;;
21979;SDS011;11154;48.558;9.234;2023-03-01T09:14:54;25.10;;;15.30;;
21979;SDS011;11154;48.558;9.234;2023-03-01T09:16:56;20.65;;;13.90;;
21979;SDS011;11154;48.558;9.234;2023-03-01T09:18:59;21.80;;;15.27;;
21979;SDS011;11154;48.558;9.234;2023-03-01T09:21:01;22.60;;;14.13;;
21979;SDS011;11154;48.558;9.234;2023-03-01T09:23:07;20.73;;;14.35;;
21979;SDS011;11154;48.558;9.234;2023-03-01T09:25:08;20.55;;;14.18;;
21979;SDS011;11154;48.558;9.234;2023-03-01T09:27:10;22.73;;;15.23;;
21979;SDS011;11154;48.558;9.234;2023-03-01T09:29:12;21.58;;;14.77;;
21979;SDS011;11154;48.558;9.234;2023-03-01T09:31:16;21.58;;;14.27;;
21979;SDS011;11154;48.558;9.234;2023-03-01T09:33:18;19.75;;;14.48;;
21979;SDS011;11154;48.558;9.234;2023-03-01T09:35:22;23.15;;;14.23;;
21979;SDS011;11154;48.558;9.234;2023-03-01T09:37:23;22.55;;;15.75;;
21979;SDS011;11154;48.558;9.234;2023-03-01T09:39:25;18.70;;;14.02;;
21979;SDS011;11154;48.558;9.234;2023-03-01T09:41:36;21.05;;;14.90;;
21979;SDS011;11154;48.558;9.234;2023-03-01T09:43:45;21.20;;;13.88;;
21979;SDS011;11154;48.558;9.234;2023-03-01T09:45:54;23.20;;;16.02;;
21979;SDS011;11154;48.558;9.234;2023-03-01T09:48:00;22.13;;;14.90;;
21979;SDS011;11154;48.558;9.234;2023-03-01T09:50:05;25.08;;;15.75;;
21979;SDS011;11154;48.558;9.234;2023-03-01T09:52:16;18.88;;;13.82;;
21979;SDS011;11154;48.558;9.234;2023-03-01T09:54:23;19.58;;;14.63;;
21979;SDS011;11154;48.558;9.234;2023-03-01T09:56:27;19.63;;;13.88;;
21979;SDS011;11154;48.558;9.234;2023-03-01T09:58:36;22.17;;;15.40;;
21979;SDS011;11154;48.558;9.234;2023-03-01T10:00:43;23.33;;;14.40;;
21979;SDS011;11154;48.558;9.234;2023-03-01T10:02:49;20.70;;;14.45;;
21979;SDS011;11154;48.558;9.234;2023-03-01T10:04:54;22.42;;;14.50;;
21979;SDS011;11154;48.558;9.234;2023-03-01T10:07:05;19.65;;;14.35;;
21979;SDS011;11154;48.558;9.234;2023-03-01T10:09:19;26.23;;;15.63;;
21979;SDS011;11154;48.558;9.234;2023-03-01T10:11:22;21.48;;;14.32;;
21979;SDS011;11154;48.558;9.234;2023-03-01T10:13:27;20.15;;;14.50;;
21979;SDS011;11154;48.558;9.234;2023-03-01T10:15:34;20.63;;;14.25;;
21979;SDS011;11154;48.558;9.234;2023-03-01T10:17:43;18.80;;;13.63;;
21979;SDS011;11154;48.558;9.234;2023-03-01T10:19:49;20.10;;;14.50;;
21979;SDS011;11154;48.558;9.234;2023-03-01T10:21:51;19.65;;;14.05;;
21979;SDS011;11154;48.558;9.234;2023-03-01T10:23:55;20.88;;;14.85;;
21979;SDS011;11154;48.558;9.234;2023-03-01T10:26:16;19.77;;;13.93;;
21979;SDS011;11154;48.558;9.234;2023-03-01T10:28:36;22.02;;;13.73;;
21979;SDS011;11154;48.558;9.234;2023-03-01T10:30:51;19.17;;;14.25;;
21979;SDS011;11154;48.558;9.234;2023-03-01T10:32:53;18.65;;;13.73;;
21979;SDS011;11154;48.558;9.234;2023-03-01T10:34:55;20.35;;;14.38;;
21979;SDS011;11154;48.558;9.234;2023-03-01T10:36:58;20.08;;;14.60;;
21979;SDS011;11154;48.558;9.234;2023-03-01T10:39:15;20.73;;;14.18;;
21979;SDS011;11154;48.558;9.234;2023-03-01T10:41:19;19.33;;;14.35;;
21979;SDS011;11154;48.558;9.234;2023-03-01T10:43:23;18.60;;;13.52;;
21979;SDS011;11154;48.558;9.234;2023-03-01T10:45:30;21.55;;;13.68;;
21979;SDS011;11154;48.558;9.234;2023-03-01T10:47:35;17.65;;;12.40;;
21979;SDS011;11154;48.558;9.234;2023-03-01T10:49:37;20.30;;;13.13;;
21979;SDS011;11154;48.558;9.234;2023-03-01T10:51:39;25.17;;;16.23;;
21979;SDS011;11154;48.558;9.234;2023-03-01T10:53:42;19.30;;;13.48;;
21979;SDS011;11154;48.558;9.234;2023-03-01T10:55:50;18.25;;;13.55;;
21979;SDS011;11154;48.558;9.234;2023-03-01T11:00:18;18.30;;;12.35;;
21979;SDS011;11154;48.558;9.234;2023-03-01T11:02:23;18.42;;;12.82;;
21979;SDS011;11154;48.558;9.234;2023-03-01T11:04:29;20.40;;;13.55;;
21979;SDS011;11154;48.558;9.234;2023-03-01T11:06:31;18.67;;;12.30;;
21979;SDS011;11154;48.558;9.234;2023-03-01T11:08:34;17.65;;;12.73;;
21979;SDS011;11154;48.558;9.234;2023-03-01T11:10:38;16.35;;;11.98;;
21979;SDS011;11154;48.558;9.234;2023-03-01T11:12:41;19.30;;;13.10;;
21979;SDS011;11154;48.558;9.234;2023-03-01T11:14:46;18.23;;;13.27;;
21979;SDS011;11154;48.558;9.234;2023-03-01T11:16:58;17.30;;;12.35;;
21979;SDS011;11154;48.558;9.234;2023-03-01T11:19:04;17.50;;;12.23;;
21979;SDS011;11154;48.558;9.234;2023-03-01T11:21:16;16.67;;;12.43;;
21979;SDS011;11154;48.558;9.234;2023-03-01T11:23:17;15.90;;;11.10;;
21979;SDS011;11154;48.558;9.234;2023-03-01T11:25:23;18.10;;;12.60;;
21979;SDS011;11154;48.558;9.234;2023-03-01T11:27:27;17.02;;;11.20;;
21979;SDS011;11154;48.558;9.234;2023-03-01T11:29:34;15.77;;;12.35;;
21979;SDS011;11154;48.558;9.234;2023-03-01T11:31:38;17.58;;;12.95;;
21979;SDS011;11154;48.558;9.234;2023-03-01T11:33:42;16.77;;;12.55;;
21979;SDS011;11154;48.558;9.234;2023-03-01T11:35:49;17.75;;;13.10;;
21979;SDS011;11154;48.558;9.234;2023-03-01T11:38:01;18.65;;;13.98;;
21979;SDS011;11154;48.558;9.234;2023-03-01T11:40:12;17.83;;;12.50;;
21979;SDS011;11154;48.558;9.234;2023-03-01T11:42:17;20.70;;;13.07;;
21979;SDS011;11154;48.558;9.234;2023-03-01T11:44:23;15.90;;;11.95;;
21979;SDS011;11154;48.558;9.234;2023-03-01T11:46:48;19.42;;;12.55;;
21979;SDS011;11154;48.558;9.234;2023-03-01T11:49:09;18.15;;;13.70;;
21979;SDS011;11154;48.558;9.234;2023-03-01T11:51:35;16.45;;;11.82;;
21979;SDS011;11154;48.558;9.234;2023-03-01T11:53:57;16.35;;;12.00;;
21979;SDS011;11154;48.558;9.234;2023-03-01T11:56:10;15.88;;;12.23;;
21979;SDS011;11154;48.558;9.234;2023-03-01T11:58:27;16.88;;;11.73;;
21979;SDS011;11154;48.558;9.234;2023-03-01T12:00:44;17.55;;;12.05;;
21979;SDS011;11154;48.558;9.234;2023-03-01T12:06:01;18.13;;;12.05;;
21979;SDS011;11154;48.558;9.234;2023-03-01T12:08:24;18.23;;;11.98;;
21979;SDS011;11154;48.558;9.234;2023-03-01T12:10:33;17.42;;;12.48;;